Airfield :
LOGIN :

Register | Disclaimer

   EN    FR    IT 

 










Legend :    VFR   Marginal VFR   IFR   Intensive IFR   Very Intensive IFR
Visi :
Ceiling :
>= 8 km
>= 3000ft
5 to 8 km
1000 to 3000 ft
1500m to 5 km
500 to 1000 ft
800 to 1500m
200 to 500 ft
< 800m
< 200 ft
Symbols :   Thunderstorms  Fog  Heavy snow  Heavy precipitations  Wind > 20 kt
SIGMETs :     Misc.  Thunderstorms  Icing  Turbulence  Mountain Waves  Volcanic Ashes






- Airport Elevation : 135 ft
- IATA code : EDI


EGPH - Edinburgh

CURRENT METAR :
  • 230120Z 26005KT 9999 SCT029 BKN040 07/07 Q1019

EXPIRED METARs :
  • 230050Z 06001KT 9999 BKN032 05/04 Q1019
  • 230020Z VRB01KT CAVOK 04/04 Q1019
  • 222350Z 25004KT 9999 FEW035 05/05 Q1019
  • 222320Z 25004KT 9999 BKN024 06/05 Q1020
  • 222250Z 27004KT 240V300 9999 SCT024 07/06 Q1020

TAF TAF EGPH
Valid from the 23 at 00:00 until the 24 at 00:00 UTC


222256Z 2300/2324 26005KT 9999 FEW024
BECMG 2309/2312 20012KT
TEMPO 2312/2324 21018G32KT
PROB40
TEMPO 2318/2324 7000 -RA BKN014
ATIS : +44 131 339 2823



MET'MAP, your aeronautical weather chart ! - Copyright ORBIFLY December 2007 - Disclaimer

ORBIFLY MET'MAP TEAM :

Programming & Development : Alexandra Zaïnal
Concept & original design : Baudouin d'Aumeries
Assistance for programming : Marc-Olivier Méhu
Technical & hardware support : Manuel Goepfert

Contact : metmap@orbifly.com




SOURCES & CREDITS :

   NOAA